sensor_id;sensor_type;location;lat;lon;timestamp;P1;durP1;ratioP1;P2;durP2;ratioP2
52041;SDS011;38052;45.944;13.624;2023-07-24T00:02:17;9.55;;;4.07;;
52041;SDS011;38052;45.944;13.624;2023-07-24T00:04:44;7.90;;;4.40;;
52041;SDS011;38052;45.944;13.624;2023-07-24T00:07:11;7.38;;;4.63;;
52041;SDS011;38052;45.944;13.624;2023-07-24T00:09:37;8.38;;;4.30;;
52041;SDS011;38052;45.944;13.624;2023-07-24T00:12:04;6.47;;;4.10;;
52041;SDS011;38052;45.944;13.624;2023-07-24T00:14:30;7.35;;;4.28;;
52041;SDS011;38052;45.944;13.624;2023-07-24T00:16:57;6.95;;;4.13;;
52041;SDS011;38052;45.944;13.624;2023-07-24T00:19:24;6.07;;;4.28;;
52041;SDS011;38052;45.944;13.624;2023-07-24T00:21:50;8.70;;;4.35;;
52041;SDS011;38052;45.944;13.624;2023-07-24T00:24:17;7.95;;;4.03;;
52041;SDS011;38052;45.944;13.624;2023-07-24T00:26:43;10.75;;;5.15;;
52041;SDS011;38052;45.944;13.624;2023-07-24T00:29:10;8.38;;;4.18;;
52041;SDS011;38052;45.944;13.624;2023-07-24T00:31:36;7.88;;;4.82;;
52041;SDS011;38052;45.944;13.624;2023-07-24T00:34:02;7.05;;;4.40;;
52041;SDS011;38052;45.944;13.624;2023-07-24T00:36:28;11.55;;;4.82;;
52041;SDS011;38052;45.944;13.624;2023-07-24T00:38:55;8.07;;;5.22;;
52041;SDS011;38052;45.944;13.624;2023-07-24T00:41:21;7.50;;;5.03;;
52041;SDS011;38052;45.944;13.624;2023-07-24T00:43:47;12.40;;;4.80;;
52041;SDS011;38052;45.944;13.624;2023-07-24T00:46:14;6.20;;;4.32;;
52041;SDS011;38052;45.944;13.624;2023-07-24T00:48:41;5.90;;;3.78;;
52041;SDS011;38052;45.944;13.624;2023-07-24T00:51:07;10.00;;;4.18;;
52041;SDS011;38052;45.944;13.624;2023-07-24T00:53:34;6.38;;;4.00;;
52041;SDS011;38052;45.944;13.624;2023-07-24T00:56:00;7.85;;;4.15;;
52041;SDS011;38052;45.944;13.624;2023-07-24T00:58:27;7.28;;;3.72;;
52041;SDS011;38052;45.944;13.624;2023-07-24T01:00:54;7.45;;;4.53;;
52041;SDS011;38052;45.944;13.624;2023-07-24T01:03:20;7.50;;;4.25;;
52041;SDS011;38052;45.944;13.624;2023-07-24T01:05:49;7.18;;;3.95;;
52041;SDS011;38052;45.944;13.624;2023-07-24T01:08:15;6.85;;;4.20;;
52041;SDS011;38052;45.944;13.624;2023-07-24T01:10:42;7.05;;;3.88;;
52041;SDS011;38052;45.944;13.624;2023-07-24T01:13:10;9.80;;;5.22;;
52041;SDS011;38052;45.944;13.624;2023-07-24T01:15:42;8.93;;;4.60;;
52041;SDS011;38052;45.944;13.624;2023-07-24T01:18:10;6.00;;;3.95;;
52041;SDS011;38052;45.944;13.624;2023-07-24T01:20:37;11.60;;;5.80;;
52041;SDS011;38052;45.944;13.624;2023-07-24T01:25:33;11.02;;;4.53;;
52041;SDS011;38052;45.944;13.624;2023-07-24T01:28:00;9.32;;;4.03;;
52041;SDS011;38052;45.944;13.624;2023-07-24T01:30:27;8.15;;;4.57;;
52041;SDS011;38052;45.944;13.624;2023-07-24T01:32:54;11.02;;;4.43;;
52041;SDS011;38052;45.944;13.624;2023-07-24T01:35:20;16.23;;;5.78;;
52041;SDS011;38052;45.944;13.624;2023-07-24T01:37:46;9.93;;;4.50;;
52041;SDS011;38052;45.944;13.624;2023-07-24T01:40:13;9.93;;;4.38;;
52041;SDS011;38052;45.944;13.624;2023-07-24T01:42:41;7.15;;;4.82;;
52041;SDS011;38052;45.944;13.624;2023-07-24T01:45:07;9.73;;;3.78;;
52041;SDS011;38052;45.944;13.624;2023-07-24T01:47:33;6.82;;;4.32;;
52041;SDS011;38052;45.944;13.624;2023-07-24T01:50:00;16.75;;;4.57;;
52041;SDS011;38052;45.944;13.624;2023-07-24T01:52:26;7.35;;;4.65;;
52041;SDS011;38052;45.944;13.624;2023-07-24T01:54:52;5.82;;;3.65;;
52041;SDS011;38052;45.944;13.624;2023-07-24T01:57:19;7.22;;;4.13;;
52041;SDS011;38052;45.944;13.624;2023-07-24T01:59:45;7.43;;;4.22;;
52041;SDS011;38052;45.944;13.624;2023-07-24T02:02:11;6.53;;;4.15;;
52041;SDS011;38052;45.944;13.624;2023-07-24T02:04:38;9.50;;;4.32;;
52041;SDS011;38052;45.944;13.624;2023-07-24T02:07:04;12.20;;;4.47;;
52041;SDS011;38052;45.944;13.624;2023-07-24T02:09:30;7.82;;;4.47;;
52041;SDS011;38052;45.944;13.624;2023-07-24T02:11:57;13.93;;;4.60;;
52041;SDS011;38052;45.944;13.624;2023-07-24T02:14:24;5.82;;;4.28;;
52041;SDS011;38052;45.944;13.624;2023-07-24T02:16:51;8.95;;;4.97;;
52041;SDS011;38052;45.944;13.624;2023-07-24T02:19:18;6.20;;;4.35;;
52041;SDS011;38052;45.944;13.624;2023-07-24T02:21:45;8.80;;;4.88;;
52041;SDS011;38052;45.944;13.624;2023-07-24T02:24:11;6.30;;;4.28;;
52041;SDS011;38052;45.944;13.624;2023-07-24T02:26:38;7.25;;;4.43;;
52041;SDS011;38052;45.944;13.624;2023-07-24T02:29:04;8.95;;;5.07;;
52041;SDS011;38052;45.944;13.624;2023-07-24T02:31:31;6.22;;;4.32;;
52041;SDS011;38052;45.944;13.624;2023-07-24T02:33:57;9.85;;;5.68;;
52041;SDS011;38052;45.944;13.624;2023-07-24T02:36:23;7.95;;;4.72;;
52041;SDS011;38052;45.944;13.624;2023-07-24T02:38:50;9.60;;;4.70;;
52041;SDS011;38052;45.944;13.624;2023-07-24T02:41:16;8.32;;;4.40;;
52041;SDS011;38052;45.944;13.624;2023-07-24T02:43:43;8.63;;;4.47;;
52041;SDS011;38052;45.944;13.624;2023-07-24T02:46:10;8.25;;;4.03;;
52041;SDS011;38052;45.944;13.624;2023-07-24T02:48:37;9.70;;;4.97;;
52041;SDS011;38052;45.944;13.624;2023-07-24T02:51:03;22.27;;;5.10;;
52041;SDS011;38052;45.944;13.624;2023-07-24T02:53:29;6.72;;;4.47;;
52041;SDS011;38052;45.944;13.624;2023-07-24T02:55:56;19.23;;;5.45;;
52041;SDS011;38052;45.944;13.624;2023-07-24T02:58:23;8.90;;;4.18;;
52041;SDS011;38052;45.944;13.624;2023-07-24T03:00:50;9.60;;;4.80;;
52041;SDS011;38052;45.944;13.624;2023-07-24T03:03:16;7.68;;;5.22;;
52041;SDS011;38052;45.944;13.624;2023-07-24T03:05:43;7.00;;;4.80;;
52041;SDS011;38052;45.944;13.624;2023-07-24T03:08:09;9.45;;;4.60;;
52041;SDS011;38052;45.944;13.624;2023-07-24T03:10:39;9.98;;;5.35;;
52041;SDS011;38052;45.944;13.624;2023-07-24T03:13:06;9.70;;;4.82;;
52041;SDS011;38052;45.944;13.624;2023-07-24T03:15:32;11.93;;;5.00;;
52041;SDS011;38052;45.944;13.624;2023-07-24T03:17:59;13.20;;;5.28;;
52041;SDS011;38052;45.944;13.624;2023-07-24T03:20:25;9.77;;;5.32;;
52041;SDS011;38052;45.944;13.624;2023-07-24T03:22:52;7.82;;;5.00;;
52041;SDS011;38052;45.944;13.624;2023-07-24T03:25:19;10.85;;;5.40;;
52041;SDS011;38052;45.944;13.624;2023-07-24T03:27:45;10.75;;;4.32;;
52041;SDS011;38052;45.944;13.624;2023-07-24T03:30:12;6.97;;;4.70;;
52041;SDS011;38052;45.944;13.624;2023-07-24T03:32:38;9.73;;;4.45;;
52041;SDS011;38052;45.944;13.624;2023-07-24T03:35:05;6.55;;;4.85;;
52041;SDS011;38052;45.944;13.624;2023-07-24T03:37:33;9.05;;;4.50;;
52041;SDS011;38052;45.944;13.624;2023-07-24T03:40:00;8.30;;;5.18;;
52041;SDS011;38052;45.944;13.624;2023-07-24T03:42:27;8.30;;;4.70;;
52041;SDS011;38052;45.944;13.624;2023-07-24T03:44:54;7.57;;;4.57;;
52041;SDS011;38052;45.944;13.624;2023-07-24T03:47:21;11.30;;;4.15;;
52041;SDS011;38052;45.944;13.624;2023-07-24T03:49:47;8.88;;;4.43;;
52041;SDS011;38052;45.944;13.624;2023-07-24T03:52:13;9.68;;;4.63;;
52041;SDS011;38052;45.944;13.624;2023-07-24T03:54:39;7.72;;;4.68;;
52041;SDS011;38052;45.944;13.624;2023-07-24T03:57:06;13.60;;;5.30;;
52041;SDS011;38052;45.944;13.624;2023-07-24T03:59:33;9.88;;;4.10;;
52041;SDS011;38052;45.944;13.624;2023-07-24T04:01:59;9.27;;;4.95;;
52041;SDS011;38052;45.944;13.624;2023-07-24T04:04:26;8.80;;;4.35;;
52041;SDS011;38052;45.944;13.624;2023-07-24T04:06:52;9.52;;;5.47;;
52041;SDS011;38052;45.944;13.624;2023-07-24T04:09:20;9.23;;;5.30;;
52041;SDS011;38052;45.944;13.624;2023-07-24T04:11:46;7.55;;;5.15;;
52041;SDS011;38052;45.944;13.624;2023-07-24T04:14:13;8.63;;;4.47;;
52041;SDS011;38052;45.944;13.624;2023-07-24T04:16:40;8.82;;;4.45;;
52041;SDS011;38052;45.944;13.624;2023-07-24T04:19:06;8.68;;;5.18;;
52041;SDS011;38052;45.944;13.624;2023-07-24T04:21:33;8.10;;;4.40;;
52041;SDS011;38052;45.944;13.624;2023-07-24T04:24:00;10.93;;;5.18;;
52041;SDS011;38052;45.944;13.624;2023-07-24T04:26:26;10.57;;;4.93;;
52041;SDS011;38052;45.944;13.624;2023-07-24T04:28:53;13.75;;;4.82;;
52041;SDS011;38052;45.944;13.624;2023-07-24T04:31:20;8.77;;;5.70;;
52041;SDS011;38052;45.944;13.624;2023-07-24T04:33:46;10.13;;;5.07;;
52041;SDS011;38052;45.944;13.624;2023-07-24T04:36:13;10.52;;;4.72;;
52041;SDS011;38052;45.944;13.624;2023-07-24T04:38:39;11.30;;;5.28;;
52041;SDS011;38052;45.944;13.624;2023-07-24T04:41:06;10.30;;;5.30;;
52041;SDS011;38052;45.944;13.624;2023-07-24T04:43:32;11.43;;;5.57;;
52041;SDS011;38052;45.944;13.624;2023-07-24T04:45:59;12.68;;;4.68;;
52041;SDS011;38052;45.944;13.624;2023-07-24T04:48:25;8.95;;;4.53;;
52041;SDS011;38052;45.944;13.624;2023-07-24T04:50:52;9.75;;;5.05;;
52041;SDS011;38052;45.944;13.624;2023-07-24T04:53:19;9.45;;;4.75;;
52041;SDS011;38052;45.944;13.624;2023-07-24T04:55:47;8.55;;;4.63;;
52041;SDS011;38052;45.944;13.624;2023-07-24T04:58:13;7.80;;;5.32;;
52041;SDS011;38052;45.944;13.624;2023-07-24T05:00:40;9.45;;;4.63;;
52041;SDS011;38052;45.944;13.624;2023-07-24T05:03:06;8.52;;;5.93;;
52041;SDS011;38052;45.944;13.624;2023-07-24T05:05:36;7.72;;;4.60;;
52041;SDS011;38052;45.944;13.624;2023-07-24T05:08:02;10.07;;;4.60;;
52041;SDS011;38052;45.944;13.624;2023-07-24T05:10:29;11.40;;;5.13;;
52041;SDS011;38052;45.944;13.624;2023-07-24T05:12:55;9.18;;;5.45;;
52041;SDS011;38052;45.944;13.624;2023-07-24T05:15:22;8.25;;;4.57;;
52041;SDS011;38052;45.944;13.624;2023-07-24T05:17:48;11.82;;;5.65;;
52041;SDS011;38052;45.944;13.624;2023-07-24T05:20:15;5.78;;;4.40;;
52041;SDS011;38052;45.944;13.624;2023-07-24T05:22:41;10.00;;;4.85;;
52041;SDS011;38052;45.944;13.624;2023-07-24T05:25:08;9.90;;;5.63;;
52041;SDS011;38052;45.944;13.624;2023-07-24T05:27:35;9.13;;;5.30;;
52041;SDS011;38052;45.944;13.624;2023-07-24T05:30:01;11.15;;;5.35;;
52041;SDS011;38052;45.944;13.624;2023-07-24T05:32:28;11.60;;;5.40;;
52041;SDS011;38052;45.944;13.624;2023-07-24T05:34:54;9.10;;;4.70;;
52041;SDS011;38052;45.944;13.624;2023-07-24T05:37:21;8.88;;;5.18;;
52041;SDS011;38052;45.944;13.624;2023-07-24T05:39:47;12.32;;;5.88;;
52041;SDS011;38052;45.944;13.624;2023-07-24T05:42:14;14.15;;;5.00;;
52041;SDS011;38052;45.944;13.624;2023-07-24T05:44:41;10.73;;;4.70;;
52041;SDS011;38052;45.944;13.624;2023-07-24T05:47:08;10.77;;;4.38;;
52041;SDS011;38052;45.944;13.624;2023-07-24T05:49:34;8.38;;;5.35;;
52041;SDS011;38052;45.944;13.624;2023-07-24T05:52:01;10.05;;;5.68;;
52041;SDS011;38052;45.944;13.624;2023-07-24T05:54:28;12.80;;;5.18;;
52041;SDS011;38052;45.944;13.624;2023-07-24T05:56:55;12.40;;;4.55;;
52041;SDS011;38052;45.944;13.624;2023-07-24T05:59:22;10.60;;;4.80;;
52041;SDS011;38052;45.944;13.624;2023-07-24T06:01:49;6.85;;;5.22;;
52041;SDS011;38052;45.944;13.624;2023-07-24T06:04:15;14.43;;;5.32;;
52041;SDS011;38052;45.944;13.624;2023-07-24T06:06:43;8.55;;;5.13;;
52041;SDS011;38052;45.944;13.624;2023-07-24T06:09:09;11.02;;;4.40;;
52041;SDS011;38052;45.944;13.624;2023-07-24T06:11:36;13.10;;;5.03;;
52041;SDS011;38052;45.944;13.624;2023-07-24T06:14:03;6.68;;;4.20;;
52041;SDS011;38052;45.944;13.624;2023-07-24T06:16:29;13.55;;;6.78;;
52041;SDS011;38052;45.944;13.624;2023-07-24T06:18:55;8.73;;;4.82;;
52041;SDS011;38052;45.944;13.624;2023-07-24T06:21:22;9.15;;;4.75;;
52041;SDS011;38052;45.944;13.624;2023-07-24T06:23:49;9.27;;;4.68;;
52041;SDS011;38052;45.944;13.624;2023-07-24T06:26:16;10.30;;;5.28;;
52041;SDS011;38052;45.944;13.624;2023-07-24T06:28:43;7.38;;;4.75;;
52041;SDS011;38052;45.944;13.624;2023-07-24T06:31:09;11.90;;;6.22;;
52041;SDS011;38052;45.944;13.624;2023-07-24T06:33:36;10.57;;;4.97;;
52041;SDS011;38052;45.944;13.624;2023-07-24T06:36:02;11.50;;;5.00;;
52041;SDS011;38052;45.944;13.624;2023-07-24T06:38:29;15.02;;;5.38;;
52041;SDS011;38052;45.944;13.624;2023-07-24T06:40:57;9.68;;;4.85;;
52041;SDS011;38052;45.944;13.624;2023-07-24T06:43:23;11.60;;;4.55;;
52041;SDS011;38052;45.944;13.624;2023-07-24T06:45:50;11.50;;;4.43;;
52041;SDS011;38052;45.944;13.624;2023-07-24T06:48:16;9.05;;;4.63;;
52041;SDS011;38052;45.944;13.624;2023-07-24T06:50:43;11.68;;;5.10;;
52041;SDS011;38052;45.944;13.624;2023-07-24T06:53:10;9.95;;;5.95;;
52041;SDS011;38052;45.944;13.624;2023-07-24T06:55:36;8.48;;;5.82;;
52041;SDS011;38052;45.944;13.624;2023-07-24T06:58:03;12.60;;;5.30;;
52041;SDS011;38052;45.944;13.624;2023-07-24T07:00:31;12.00;;;5.35;;
52041;SDS011;38052;45.944;13.624;2023-07-24T07:02:57;11.65;;;5.78;;
52041;SDS011;38052;45.944;13.624;2023-07-24T07:05:24;9.48;;;5.03;;
52041;SDS011;38052;45.944;13.624;2023-07-24T07:07:51;8.02;;;5.40;;
52041;SDS011;38052;45.944;13.624;2023-07-24T07:10:17;9.07;;;5.55;;
52041;SDS011;38052;45.944;13.624;2023-07-24T07:12:44;10.02;;;4.38;;
52041;SDS011;38052;45.944;13.624;2023-07-24T07:15:10;10.18;;;5.18;;
52041;SDS011;38052;45.944;13.624;2023-07-24T07:17:37;10.73;;;5.53;;
52041;SDS011;38052;45.944;13.624;2023-07-24T07:20:04;8.70;;;4.93;;
52041;SDS011;38052;45.944;13.624;2023-07-24T07:22:30;9.15;;;4.65;;
52041;SDS011;38052;45.944;13.624;2023-07-24T07:24:57;11.23;;;4.90;;
52041;SDS011;38052;45.944;13.624;2023-07-24T07:27:23;7.15;;;4.93;;
52041;SDS011;38052;45.944;13.624;2023-07-24T07:29:50;9.02;;;4.82;;
52041;SDS011;38052;45.944;13.624;2023-07-24T07:32:16;10.93;;;5.85;;
52041;SDS011;38052;45.944;13.624;2023-07-24T07:34:43;10.35;;;5.25;;
52041;SDS011;38052;45.944;13.624;2023-07-24T07:37:10;10.52;;;4.88;;
52041;SDS011;38052;45.944;13.624;2023-07-24T07:39:36;8.30;;;5.20;;
52041;SDS011;38052;45.944;13.624;2023-07-24T07:42:03;10.23;;;5.72;;
52041;SDS011;38052;45.944;13.624;2023-07-24T07:44:29;15.43;;;6.80;;
52041;SDS011;38052;45.944;13.624;2023-07-24T07:46:56;13.05;;;5.88;;
52041;SDS011;38052;45.944;13.624;2023-07-24T07:49:22;10.07;;;6.15;;
52041;SDS011;38052;45.944;13.624;2023-07-24T07:51:49;11.48;;;4.95;;
52041;SDS011;38052;45.944;13.624;2023-07-24T07:54:15;9.00;;;4.90;;
52041;SDS011;38052;45.944;13.624;2023-07-24T07:56:42;9.40;;;6.07;;
52041;SDS011;38052;45.944;13.624;2023-07-24T07:59:08;11.20;;;5.72;;
52041;SDS011;38052;45.944;13.624;2023-07-24T08:01:36;9.68;;;5.85;;
52041;SDS011;38052;45.944;13.624;2023-07-24T08:04:04;10.52;;;5.75;;
52041;SDS011;38052;45.944;13.624;2023-07-24T08:06:30;9.80;;;5.82;;
52041;SDS011;38052;45.944;13.624;2023-07-24T08:08:57;7.22;;;5.35;;
52041;SDS011;38052;45.944;13.624;2023-07-24T08:11:23;12.88;;;5.75;;
52041;SDS011;38052;45.944;13.624;2023-07-24T08:13:50;9.57;;;5.85;;
52041;SDS011;38052;45.944;13.624;2023-07-24T08:16:16;9.07;;;5.45;;
52041;SDS011;38052;45.944;13.624;2023-07-24T08:18:46;12.90;;;6.13;;
52041;SDS011;38052;45.944;13.624;2023-07-24T08:21:32;8.00;;;5.30;;
52041;SDS011;38052;45.944;13.624;2023-07-24T08:23:58;6.70;;;4.93;;
52041;SDS011;38052;45.944;13.624;2023-07-24T08:26:27;10.95;;;5.95;;
52041;SDS011;38052;45.944;13.624;2023-07-24T08:28:53;8.25;;;5.70;;
52041;SDS011;38052;45.944;13.624;2023-07-24T08:31:20;9.90;;;5.40;;
52041;SDS011;38052;45.944;13.624;2023-07-24T08:33:46;10.52;;;6.05;;
52041;SDS011;38052;45.944;13.624;2023-07-24T08:36:13;11.52;;;6.93;;
52041;SDS011;38052;45.944;13.624;2023-07-24T08:38:39;13.38;;;7.55;;
52041;SDS011;38052;45.944;13.624;2023-07-24T08:43:33;11.45;;;8.15;;
52041;SDS011;38052;45.944;13.624;2023-07-24T08:45:59;13.00;;;6.95;;
52041;SDS011;38052;45.944;13.624;2023-07-24T08:48:26;7.18;;;5.13;;
52041;SDS011;38052;45.944;13.624;2023-07-24T08:50:55;13.32;;;5.95;;
52041;SDS011;38052;45.944;13.624;2023-07-24T08:53:22;17.65;;;6.60;;
52041;SDS011;38052;45.944;13.624;2023-07-24T08:55:49;13.80;;;6.10;;
52041;SDS011;38052;45.944;13.624;2023-07-24T09:00:46;10.52;;;5.90;;
52041;SDS011;38052;45.944;13.624;2023-07-24T09:03:12;8.57;;;5.03;;
52041;SDS011;38052;45.944;13.624;2023-07-24T09:05:39;8.73;;;6.28;;
52041;SDS011;38052;45.944;13.624;2023-07-24T09:08:05;9.52;;;6.45;;
52041;SDS011;38052;45.944;13.624;2023-07-24T09:10:32;11.85;;;7.03;;
52041;SDS011;38052;45.944;13.624;2023-07-24T09:12:59;12.07;;;6.90;;
52041;SDS011;38052;45.944;13.624;2023-07-24T09:15:25;11.90;;;7.15;;
52041;SDS011;38052;45.944;13.624;2023-07-24T09:17:53;12.75;;;6.93;;
52041;SDS011;38052;45.944;13.624;2023-07-24T09:20:20;8.57;;;6.13;;
52041;SDS011;38052;45.944;13.624;2023-07-24T09:22:53;24.88;;;8.60;;
52041;SDS011;38052;45.944;13.624;2023-07-24T09:25:29;14.50;;;7.30;;
52041;SDS011;38052;45.944;13.624;2023-07-24T09:27:57;9.55;;;6.18;;
52041;SDS011;38052;45.944;13.624;2023-07-24T09:30:23;11.10;;;6.78;;
52041;SDS011;38052;45.944;13.624;2023-07-24T09:32:53;11.10;;;6.68;;
52041;SDS011;38052;45.944;13.624;2023-07-24T09:35:19;9.48;;;6.30;;
52041;SDS011;38052;45.944;13.624;2023-07-24T09:37:51;10.10;;;7.07;;
52041;SDS011;38052;45.944;13.624;2023-07-24T09:40:17;15.10;;;7.40;;
52041;SDS011;38052;45.944;13.624;2023-07-24T09:42:44;15.30;;;8.00;;
52041;SDS011;38052;45.944;13.624;2023-07-24T09:45:10;10.15;;;6.55;;
52041;SDS011;38052;45.944;13.624;2023-07-24T09:47:38;14.75;;;7.68;;
52041;SDS011;38052;45.944;13.624;2023-07-24T09:50:05;11.48;;;7.13;;
52041;SDS011;38052;45.944;13.624;2023-07-24T09:52:32;11.27;;;7.68;;
52041;SDS011;38052;45.944;13.624;2023-07-24T09:57:28;11.00;;;6.80;;
52041;SDS011;38052;45.944;13.624;2023-07-24T09:59:56;12.50;;;6.78;;
52041;SDS011;38052;45.944;13.624;2023-07-24T10:02:22;11.55;;;6.85;;
52041;SDS011;38052;45.944;13.624;2023-07-24T10:04:49;8.75;;;6.43;;
52041;SDS011;38052;45.944;13.624;2023-07-24T10:07:15;14.75;;;7.78;;
52041;SDS011;38052;45.944;13.624;2023-07-24T10:09:42;9.55;;;6.82;;
52041;SDS011;38052;45.944;13.624;2023-07-24T10:12:09;11.18;;;7.05;;
52041;SDS011;38052;45.944;13.624;2023-07-24T10:14:35;12.63;;;6.97;;
52041;SDS011;38052;45.944;13.624;2023-07-24T10:17:03;20.15;;;9.18;;
52041;SDS011;38052;45.944;13.624;2023-07-24T10:19:43;11.27;;;6.82;;
52041;SDS011;38052;45.944;13.624;2023-07-24T10:22:18;10.75;;;7.88;;
52041;SDS011;38052;45.944;13.624;2023-07-24T10:24:46;9.43;;;6.40;;
52041;SDS011;38052;45.944;13.624;2023-07-24T10:27:12;12.52;;;7.32;;
52041;SDS011;38052;45.944;13.624;2023-07-24T10:29:39;12.35;;;7.40;;
52041;SDS011;38052;45.944;13.624;2023-07-24T10:32:18;12.45;;;6.55;;
52041;SDS011;38052;45.944;13.624;2023-07-24T10:34:44;9.70;;;6.20;;
52041;SDS011;38052;45.944;13.624;2023-07-24T10:37:10;12.30;;;6.90;;
52041;SDS011;38052;45.944;13.624;2023-07-24T10:39:38;14.80;;;6.95;;
52041;SDS011;38052;45.944;13.624;2023-07-24T10:42:08;10.77;;;6.82;;
52041;SDS011;38052;45.944;13.624;2023-07-24T10:47:01;10.80;;;6.93;;
52041;SDS011;38052;45.944;13.624;2023-07-24T10:49:28;12.50;;;7.20;;
52041;SDS011;38052;45.944;13.624;2023-07-24T10:51:55;10.60;;;6.97;;
52041;SDS011;38052;45.944;13.624;2023-07-24T10:54:22;11.80;;;6.97;;
52041;SDS011;38052;45.944;13.624;2023-07-24T10:56:48;12.90;;;6.95;;
52041;SDS011;38052;45.944;13.624;2023-07-24T10:59:15;10.70;;;6.60;;
52041;SDS011;38052;45.944;13.624;2023-07-24T11:01:41;13.60;;;7.65;;
52041;SDS011;38052;45.944;13.624;2023-07-24T11:04:08;10.68;;;6.28;;
52041;SDS011;38052;45.944;13.624;2023-07-24T11:06:37;10.80;;;7.10;;
52041;SDS011;38052;45.944;13.624;2023-07-24T11:09:04;12.40;;;7.10;;
52041;SDS011;38052;45.944;13.624;2023-07-24T11:11:34;11.65;;;7.30;;
52041;SDS011;38052;45.944;13.624;2023-07-24T11:14:02;13.98;;;7.68;;
52041;SDS011;38052;45.944;13.624;2023-07-24T11:16:29;13.20;;;6.68;;
52041;SDS011;38052;45.944;13.624;2023-07-24T11:18:56;13.43;;;6.78;;
52041;SDS011;38052;45.944;13.624;2023-07-24T11:21:22;13.68;;;6.85;;
52041;SDS011;38052;45.944;13.624;2023-07-24T11:23:50;12.38;;;7.65;;
52041;SDS011;38052;45.944;13.624;2023-07-24T11:26:20;10.38;;;6.88;;
52041;SDS011;38052;45.944;13.624;2023-07-24T11:28:46;11.52;;;7.18;;
52041;SDS011;38052;45.944;13.624;2023-07-24T11:31:12;15.00;;;7.35;;
52041;SDS011;38052;45.944;13.624;2023-07-24T11:33:40;12.07;;;6.40;;
52041;SDS011;38052;45.944;13.624;2023-07-24T11:36:07;8.63;;;6.38;;
52041;SDS011;38052;45.944;13.624;2023-07-24T11:38:33;13.30;;;7.70;;
52041;SDS011;38052;45.944;13.624;2023-07-24T11:41:00;17.00;;;7.15;;
52041;SDS011;38052;45.944;13.624;2023-07-24T11:43:27;14.80;;;6.05;;
52041;SDS011;38052;45.944;13.624;2023-07-24T11:45:54;11.27;;;6.82;;
52041;SDS011;38052;45.944;13.624;2023-07-24T11:48:22;10.85;;;7.35;;
52041;SDS011;38052;45.944;13.624;2023-07-24T11:50:52;9.45;;;5.90;;
52041;SDS011;38052;45.944;13.624;2023-07-24T11:53:22;11.57;;;6.80;;
52041;SDS011;38052;45.944;13.624;2023-07-24T11:55:49;9.57;;;6.95;;
52041;SDS011;38052;45.944;13.624;2023-07-24T11:58:16;12.98;;;6.93;;
52041;SDS011;38052;45.944;13.624;2023-07-24T12:00:42;12.93;;;7.45;;
52041;SDS011;38052;45.944;13.624;2023-07-24T12:03:08;12.05;;;7.35;;
52041;SDS011;38052;45.944;13.624;2023-07-24T12:05:41;12.57;;;5.88;;
52041;SDS011;38052;45.944;13.624;2023-07-24T12:08:08;11.88;;;6.53;;
52041;SDS011;38052;45.944;13.624;2023-07-24T12:10:37;13.57;;;7.18;;
52041;SDS011;38052;45.944;13.624;2023-07-24T12:13:04;10.18;;;6.65;;
52041;SDS011;38052;45.944;13.624;2023-07-24T12:15:30;12.93;;;7.03;;
52041;SDS011;38052;45.944;13.624;2023-07-24T12:17:58;15.65;;;7.45;;
52041;SDS011;38052;45.944;13.624;2023-07-24T12:20:26;8.82;;;5.60;;
52041;SDS011;38052;45.944;13.624;2023-07-24T12:22:53;10.35;;;7.18;;
52041;SDS011;38052;45.944;13.624;2023-07-24T12:25:19;11.82;;;7.45;;
52041;SDS011;38052;45.944;13.624;2023-07-24T12:27:46;11.15;;;7.05;;
52041;SDS011;38052;45.944;13.624;2023-07-24T12:30:13;20.63;;;7.65;;
52041;SDS011;38052;45.944;13.624;2023-07-24T12:32:39;13.52;;;7.45;;
52041;SDS011;38052;45.944;13.624;2023-07-24T12:35:07;13.65;;;7.60;;
52041;SDS011;38052;45.944;13.624;2023-07-24T12:37:34;11.43;;;7.23;;
52041;SDS011;38052;45.944;13.624;2023-07-24T12:40:00;12.73;;;7.45;;
52041;SDS011;38052;45.944;13.624;2023-07-24T12:42:27;14.77;;;7.25;;
52041;SDS011;38052;45.944;13.624;2023-07-24T12:44:54;14.55;;;7.57;;
52041;SDS011;38052;45.944;13.624;2023-07-24T12:47:20;11.48;;;7.50;;
52041;SDS011;38052;45.944;13.624;2023-07-24T12:49:47;15.90;;;7.47;;
52041;SDS011;38052;45.944;13.624;2023-07-24T12:52:13;11.48;;;7.38;;
52041;SDS011;38052;45.944;13.624;2023-07-24T12:54:40;11.77;;;7.15;;
52041;SDS011;38052;45.944;13.624;2023-07-24T12:57:06;15.05;;;8.50;;
52041;SDS011;38052;45.944;13.624;2023-07-24T12:59:32;10.73;;;7.75;;
52041;SDS011;38052;45.944;13.624;2023-07-24T13:01:59;12.00;;;8.00;;
52041;SDS011;38052;45.944;13.624;2023-07-24T13:04:26;12.13;;;7.65;;
52041;SDS011;38052;45.944;13.624;2023-07-24T13:06:52;13.57;;;7.20;;
52041;SDS011;38052;45.944;13.624;2023-07-24T13:09:19;17.20;;;8.80;;
52041;SDS011;38052;45.944;13.624;2023-07-24T13:11:46;14.40;;;8.48;;
52041;SDS011;38052;45.944;13.624;2023-07-24T13:14:15;11.98;;;7.45;;
52041;SDS011;38052;45.944;13.624;2023-07-24T13:16:42;12.30;;;7.93;;
52041;SDS011;38052;45.944;13.624;2023-07-24T13:19:09;14.63;;;7.95;;
52041;SDS011;38052;45.944;13.624;2023-07-24T13:21:36;13.80;;;8.25;;
52041;SDS011;38052;45.944;13.624;2023-07-24T13:24:02;14.68;;;7.57;;
52041;SDS011;38052;45.944;13.624;2023-07-24T13:26:28;11.82;;;7.72;;
52041;SDS011;38052;45.944;13.624;2023-07-24T13:28:55;12.65;;;8.30;;
52041;SDS011;38052;45.944;13.624;2023-07-24T13:31:21;10.48;;;6.93;;
52041;SDS011;38052;45.944;13.624;2023-07-24T13:33:48;14.38;;;7.53;;
52041;SDS011;38052;45.944;13.624;2023-07-24T13:36:15;11.88;;;7.53;;
52041;SDS011;38052;45.944;13.624;2023-07-24T13:38:41;14.30;;;6.45;;
52041;SDS011;38052;45.944;13.624;2023-07-24T13:41:08;14.40;;;6.97;;
52041;SDS011;38052;45.944;13.624;2023-07-24T13:43:34;12.80;;;7.50;;
52041;SDS011;38052;45.944;13.624;2023-07-24T13:46:01;10.52;;;7.20;;
52041;SDS011;38052;45.944;13.624;2023-07-24T13:48:27;12.32;;;7.95;;
52041;SDS011;38052;45.944;13.624;2023-07-24T13:50:54;10.43;;;7.53;;
52041;SDS011;38052;45.944;13.624;2023-07-24T13:53:21;15.48;;;7.93;;
52041;SDS011;38052;45.944;13.624;2023-07-24T13:55:47;12.88;;;7.72;;
52041;SDS011;38052;45.944;13.624;2023-07-24T13:58:14;13.27;;;7.47;;
52041;SDS011;38052;45.944;13.624;2023-07-24T14:00:40;10.80;;;8.07;;
52041;SDS011;38052;45.944;13.624;2023-07-24T14:03:06;13.60;;;8.25;;
52041;SDS011;38052;45.944;13.624;2023-07-24T14:05:34;12.07;;;7.47;;
52041;SDS011;38052;45.944;13.624;2023-07-24T14:08:01;13.52;;;8.23;;
52041;SDS011;38052;45.944;13.624;2023-07-24T14:10:28;14.00;;;7.53;;
52041;SDS011;38052;45.944;13.624;2023-07-24T14:12:55;13.25;;;7.25;;
52041;SDS011;38052;45.944;13.624;2023-07-24T14:15:21;13.93;;;7.75;;
52041;SDS011;38052;45.944;13.624;2023-07-24T14:17:48;16.17;;;7.40;;
52041;SDS011;38052;45.944;13.624;2023-07-24T14:20:14;15.20;;;7.90;;
52041;SDS011;38052;45.944;13.624;2023-07-24T14:22:41;15.70;;;7.75;;
52041;SDS011;38052;45.944;13.624;2023-07-24T14:25:08;13.75;;;7.57;;
52041;SDS011;38052;45.944;13.624;2023-07-24T14:27:34;14.25;;;7.93;;
52041;SDS011;38052;45.944;13.624;2023-07-24T14:30:00;11.65;;;7.80;;
52041;SDS011;38052;45.944;13.624;2023-07-24T14:32:26;17.30;;;7.97;;
52041;SDS011;38052;45.944;13.624;2023-07-24T14:34:53;15.38;;;7.72;;
52041;SDS011;38052;45.944;13.624;2023-07-24T14:37:20;14.57;;;6.72;;